Time;durP1;ratioP1;P1;durP2;ratioP2;P2;SDS_P1;SDS_P2;PMS_P1;PMS_P2;Temp;Humidity;BMP_temperature;BMP_pressure;BME280_temperature;BME280_humidity;BME280_pressure;Samples;Min_cycle;Max_cycle;Signal;HPM_P1;HPM_P2
2023/10/22 00:02:09;;;;;;;4.93;2.10;;;;;;;16.44;80.53;99473.38;5011281;28;20033;-45
2023/10/22 00:04:35;;;;;;;3.60;2.00;;;;;;;16.18;81.54;99472.44;5010726;28;20034;-47
2023/10/22 00:07:01;;;;;;;6.35;2.40;;;;;;;15.97;82.40;99474.88;5011245;28;20122;-45
2023/10/22 00:09:26;;;;;;;6.53;2.20;;;;;;;16.16;81.81;99476.88;5033744;22;20045;-45
2023/10/22 00:11:51;;;;;;;5.22;2.20;;;;;;;16.43;80.96;99483.03;5031393;28;20037;-44
2023/10/22 00:14:17;;;;;;;5.28;2.10;;;;;;;16.50;80.65;99481.06;5031706;28;20038;-44
2023/10/22 00:16:42;;;;;;;5.22;2.00;;;;;;;16.35;80.96;99471.03;5029932;28;20069;-50
2023/10/22 00:19:08;;;;;;;4.95;2.22;;;;;;;16.31;80.57;99472.91;5031437;28;20046;-44
2023/10/22 00:21:34;;;;;;;4.40;1.80;;;;;;;16.48;80.56;99488.13;5029927;28;20049;-45
2023/10/22 00:23:59;;;;;;;4.82;1.80;;;;;;;16.38;80.15;99479.69;5031600;28;20373;-48
2023/10/22 00:26:24;;;;;;;5.60;2.10;;;;;;;16.49;80.35;99500.38;5032427;28;20087;-46
2023/10/22 00:28:50;;;;;;;4.95;2.00;;;;;;;16.63;79.95;99506.09;5032007;28;20037;-50
2023/10/22 00:31:15;;;;;;;4.22;1.80;;;;;;;16.55;79.99;99498.41;5031196;28;20033;-45
2023/10/22 00:33:41;;;;;;;3.45;1.80;;;;;;;16.35;81.06;99502.59;5029598;28;20033;-44
2023/10/22 00:36:06;;;;;;;3.72;1.70;;;;;;;16.22;81.28;99505.59;5031065;28;20034;-47
2023/10/22 00:38:32;;;;;;;4.20;1.50;;;;;;;16.36;81.17;99515.69;5031273;28;20033;-46
2023/10/22 00:40:57;;;;;;;3.40;1.60;;;;;;;16.45;81.38;99525.06;5029289;28;20051;-47
2023/10/22 00:43:22;;;;;;;3.38;1.73;;;;;;;16.35;81.81;99526.25;5030841;28;20041;-48
2023/10/22 00:45:48;;;;;;;5.03;1.70;;;;;;;16.30;81.41;99517.66;5029940;28;20450;-48
2023/10/22 00:48:16;;;;;;;4.10;1.70;;;;;;;16.60;80.49;99535.13;5031206;28;20099;-49
2023/10/22 00:50:41;;;;;;;4.95;1.90;;;;;;;16.34;82.31;99528.06;5030701;28;20045;-45
2023/10/22 00:53:08;;;;;;;3.58;1.60;;;;;;;16.67;80.82;99531.38;5031152;28;20038;-43
2023/10/22 00:55:36;;;;;;;3.42;1.60;;;;;;;16.48;81.42;99536.34;5029531;28;20037;-47
2023/10/22 00:58:03;;;;;;;3.22;1.45;;;;;;;16.42;81.60;99546.19;5030862;28;20033;-44
2023/10/22 01:00:28;;;;;;;3.55;1.50;;;;;;;16.27;82.29;99554.59;5030635;28;20495;-47
2023/10/22 01:02:53;;;;;;;2.50;1.40;;;;;;;16.48;81.94;99557.41;5030584;28;20044;-46
2023/10/22 01:05:19;;;;;;;3.38;1.40;;;;;;;16.45;81.45;99559.28;5030797;28;20041;-45
2023/10/22 01:07:45;;;;;;;5.43;1.63;;;;;;;16.57;81.54;99562.38;5030625;28;20028;-48
2023/10/22 01:10:11;;;;;;;4.63;1.60;;;;;;;16.57;81.10;99566.78;5030740;28;20037;-43
2023/10/22 01:12:38;;;;;;;5.68;1.50;;;;;;;16.77;80.78;99577.53;5030011;28;20179;-44
2023/10/22 01:15:04;;;;;;;3.38;1.40;;;;;;;16.83;80.83;99584.41;5030479;28;20586;-45
2023/10/22 01:17:29;;;;;;;4.75;1.40;;;;;;;16.95;80.02;99594.53;5030444;28;20399;-48
2023/10/22 01:19:55;;;;;;;2.70;1.30;;;;;;;16.93;79.82;99588.44;5029826;28;20036;-46
2023/10/22 01:22:20;;;;;;;3.13;1.30;;;;;;;16.74;80.92;99597.84;5030626;28;20030;-45
2023/10/22 01:24:46;;;;;;;3.30;1.40;;;;;;;16.83;81.21;99602.84;5029872;28;20040;-44
2023/10/22 01:27:11;;;;;;;3.13;1.40;;;;;;;17.03;80.12;99601.25;5030602;28;20445;-45
2023/10/22 01:29:36;;;;;;;5.25;1.33;;;;;;;17.04;80.27;99612.66;5030149;28;20056;-44
2023/10/22 01:32:03;;;;;;;5.90;1.65;;;;;;;16.97;79.93;99600.59;5030405;28;20060;-46
2023/10/22 01:34:28;;;;;;;4.05;1.52;;;;;;;16.91;80.54;99606.91;5030262;28;20061;-47
2023/10/22 01:36:53;;;;;;;5.32;1.52;;;;;;;16.96;80.68;99617.28;5029936;28;20072;-48
2023/10/22 01:39:18;;;;;;;4.07;1.60;;;;;;;17.14;80.19;99621.13;5031265;28;20187;-45
2023/10/22 01:41:44;;;;;;;3.72;1.58;;;;;;;17.14;80.32;99626.38;5031034;28;20399;-44
2023/10/22 01:44:09;;;;;;;3.22;1.23;;;;;;;17.25;79.63;99633.03;5032015;28;20041;-46
2023/10/22 01:46:35;;;;;;;3.35;1.40;;;;;;;17.20;79.70;99636.72;5031668;28;20037;-43
2023/10/22 01:49:00;;;;;;;5.70;1.58;;;;;;;17.16;80.65;99640.34;5032770;28;20040;-44
2023/10/22 01:51:25;;;;;;;5.50;1.50;;;;;;;16.78;83.14;99642.44;5031650;28;20037;-45
2023/10/22 01:53:51;;;;;;;3.60;1.23;;;;;;;16.83;83.17;99660.75;5029102;28;20492;-44
2023/10/22 01:56:16;;;;;;;4.65;1.10;;;;;;;16.39;86.23;99677.84;5029705;28;20399;-47
2023/10/22 01:58:44;;;;;;;9.40;1.38;;;;;;;16.19;86.63;99679.25;5029275;28;20511;-44
2023/10/22 02:01:10;;;;;;;8.88;1.15;;;;;;;16.38;85.58;99684.84;5029452;28;20587;-43
2023/10/22 02:03:36;;;;;;;5.10;1.00;;;;;;;16.13;85.38;99705.72;5029023;28;20136;-42
2023/10/22 02:06:09;;;;;;;6.85;1.52;;;;;;;16.42;84.39;99712.78;5029644;28;20040;-45
2023/10/22 02:08:35;;;;;;;5.43;1.40;;;;;;;16.51;83.06;99732.72;5028589;28;20042;-44
2023/10/22 02:11:00;;;;;;;5.57;1.20;;;;;;;16.33;84.02;99742.00;5028442;28;20116;-45
2023/10/22 02:13:26;;;;;;;5.90;1.40;;;;;;;15.90;85.33;99744.06;5029579;28;20038;-44
2023/10/22 02:15:51;;;;;;;4.95;0.93;;;;;;;16.06;85.17;99750.63;5029298;28;20038;-46
2023/10/22 02:18:17;;;;;;;4.82;0.98;;;;;;;16.11;84.18;99777.66;5029591;28;20041;-45
2023/10/22 02:20:54;;;;;;;3.22;0.93;;;;;;;16.09;84.71;99768.97;5029011;28;20102;-46
2023/10/22 02:23:20;;;;;;;3.85;1.30;;;;;;;15.92;84.60;99777.28;5029327;28;20037;-48
2023/10/22 02:25:45;;;;;;;5.90;1.40;;;;;;;15.93;84.42;99789.50;5028983;28;20033;-46
2023/10/22 02:28:11;;;;;;;5.55;1.23;;;;;;;16.00;83.75;99792.84;5029475;28;20676;-45
2023/10/22 02:30:36;;;;;;;6.50;1.20;;;;;;;16.02;83.59;99804.19;5029554;28;20036;-44
2023/10/22 02:33:02;;;;;;;7.15;1.30;;;;;;;16.38;82.25;99812.88;5029417;28;20550;-47
2023/10/22 02:35:27;;;;;;;3.75;1.35;;;;;;;16.17;82.45;99820.44;5029409;28;20037;-47
2023/10/22 02:37:53;;;;;;;5.75;2.28;;;;;;;15.86;83.77;99827.38;5028884;28;20057;-45
2023/10/22 02:40:18;;;;;;;6.82;2.70;;;;;;;15.86;83.34;99842.31;5029090;28;20084;-46
2023/10/22 02:42:44;;;;;;;7.85;3.22;;;;;;;16.00;82.18;99853.31;5028741;28;20033;-44
2023/10/22 02:45:09;;;;;;;7.72;3.45;;;;;;;15.89;82.92;99863.25;5029314;28;20033;-46
2023/10/22 02:47:35;;;;;;;7.15;3.30;;;;;;;15.83;83.12;99870.38;5029310;28;20040;-49
2023/10/22 02:50:00;;;;;;;5.85;3.17;;;;;;;15.81;82.66;99880.06;5027969;28;20047;-45
2023/10/22 02:52:26;;;;;;;10.60;3.10;;;;;;;15.94;81.72;99890.28;5029120;28;20041;-45
2023/10/22 02:54:53;;;;;;;9.85;3.28;;;;;;;15.54;82.34;99896.47;5027128;28;20121;-44
2023/10/22 02:57:18;;;;;;;5.55;2.80;;;;;;;15.57;82.16;99911.28;5028859;28;20045;-44
2023/10/22 02:59:44;;;;;;;5.25;2.67;;;;;;;15.42;81.95;99917.72;5028606;28;20034;-46
2023/10/22 03:02:09;;;;;;;6.07;2.28;;;;;;;15.63;80.23;99912.00;5029188;28;20034;-46
2023/10/22 03:04:34;;;;;;;6.28;2.10;;;;;;;15.34;80.00;99931.00;5029032;28;20033;-44
2023/10/22 03:07:00;;;;;;;4.43;2.13;;;;;;;15.32;79.97;99939.78;5028704;28;20034;-44
2023/10/22 03:09:25;;;;;;;3.72;1.77;;;;;;;15.37;79.24;99944.06;5029169;28;20045;-44
2023/10/22 03:11:50;;;;;;;3.90;1.70;;;;;;;15.20;79.66;99950.56;5029826;28;20041;-46
2023/10/22 03:14:20;;;;;;;5.75;1.80;;;;;;;15.24;80.11;99962.75;5029989;28;20072;-45
2023/10/22 03:16:48;;;;;;;5.40;1.70;;;;;;;15.29;79.53;99972.25;5028973;28;20029;-44
2023/10/22 03:19:13;;;;;;;5.47;1.50;;;;;;;15.15;80.26;99974.28;5029805;28;20045;-47
2023/10/22 03:21:39;;;;;;;4.00;1.50;;;;;;;15.26;79.76;99977.56;5032284;28;20041;-48
2023/10/22 03:24:07;;;;;;;6.85;1.40;;;;;;;14.90;81.39;99992.25;5032569;28;20033;-48
2023/10/22 03:26:32;;;;;;;6.53;1.40;;;;;;;15.05;80.95;99995.50;5032840;28;20471;-47
2023/10/22 03:28:58;;;;;;;4.32;1.30;;;;;;;15.34;79.18;99991.41;5032418;28;20041;-44
2023/10/22 03:31:24;;;;;;;2.75;1.38;;;;;;;15.37;79.30;100006.22;5032272;28;20247;-44
2023/10/22 03:33:49;;;;;;;4.28;1.20;;;;;;;15.09;79.58;100007.66;5031430;28;20072;-47
2023/10/22 03:36:15;;;;;;;6.50;1.20;;;;;;;15.34;78.53;100006.28;5032517;28;20038;-46
2023/10/22 03:38:40;;;;;;;5.38;1.30;;;;;;;15.13;79.24;100017.19;5030310;28;20507;-45
2023/10/22 03:41:06;;;;;;;4.78;1.20;;;;;;;15.39;77.79;100023.69;5032035;28;20052;-46
2023/10/22 03:43:34;;;;;;;3.67;1.25;;;;;;;15.25;78.26;100023.09;5032313;28;20124;-48
2023/10/22 03:46:01;;;;;;;2.70;1.05;;;;;;;15.60;77.38;100038.22;5030547;28;20040;-47
2023/10/22 03:48:27;;;;;;;2.88;1.00;;;;;;;15.51;77.36;100038.34;5032133;28;20053;-45
2023/10/22 03:50:53;;;;;;;6.05;1.10;;;;;;;15.53;77.62;100039.22;5031721;28;20033;-46
2023/10/22 03:53:19;;;;;;;3.00;1.15;;;;;;;15.62;77.27;100041.66;5030308;28;20048;-44
2023/10/22 03:55:45;;;;;;;3.88;1.13;;;;;;;15.68;76.73;100048.53;5031464;28;20091;-45
2023/10/22 03:58:10;;;;;;;4.28;1.13;;;;;;;15.76;76.43;100057.13;5031817;28;20046;-45
2023/10/22 04:00:36;;;;;;;4.30;1.25;;;;;;;15.84;76.50;100060.47;5031101;28;20091;-47
2023/10/22 04:03:02;;;;;;;2.60;1.00;;;;;;;15.87;76.22;100064.78;5031750;28;20103;-45
2023/10/22 04:05:28;;;;;;;4.07;1.10;;;;;;;15.60;76.89;100071.50;5032015;28;20041;-44
2023/10/22 04:07:53;;;;;;;4.47;1.30;;;;;;;15.70;76.72;100083.53;5031211;28;20029;-48
2023/10/22 04:10:19;;;;;;;2.15;1.20;;;;;;;15.63;76.90;100089.81;5031538;28;20503;-46
2023/10/22 04:12:44;;;;;;;3.28;1.20;;;;;;;15.73;76.54;100097.50;5031382;28;20044;-45
2023/10/22 04:15:10;;;;;;;3.28;1.30;;;;;;;15.65;76.76;100096.78;5031507;28;20037;-46
2023/10/22 04:17:35;;;;;;;4.82;1.40;;;;;;;15.78;76.23;100110.53;5030200;28;20045;-42
2023/10/22 04:20:01;;;;;;;3.20;1.13;;;;;;;15.82;76.07;100113.06;5031803;28;20033;-47
2023/10/22 04:22:29;;;;;;;4.32;1.20;;;;;;;15.73;76.60;100113.28;5030386;28;20597;-44
2023/10/22 04:24:54;;;;;;;3.25;1.20;;;;;;;15.59;76.75;100120.53;5031145;28;20499;-50
2023/10/22 04:27:20;;;;;;;2.92;1.20;;;;;;;15.56;76.92;100120.59;5031013;28;20048;-43
2023/10/22 04:29:46;;;;;;;2.28;1.08;;;;;;;15.68;76.28;100124.72;5029554;28;20064;-49
2023/10/22 04:32:14;;;;;;;3.47;1.13;;;;;;;15.70;75.86;100131.72;5030897;28;20041;-47
2023/10/22 04:34:40;;;;;;;5.57;1.00;;;;;;;15.46;75.80;100149.66;5030443;28;20057;-46
2023/10/22 04:37:06;;;;;;;3.60;1.10;;;;;;;15.30;75.35;100139.44;5032200;28;20044;-49
2023/10/22 04:39:32;;;;;;;2.97;0.95;;;;;;;15.47;74.42;100144.38;5032356;28;20790;-44
2023/10/22 04:41:57;;;;;;;6.90;1.10;;;;;;;15.47;74.27;100149.63;5031429;28;20449;-44
2023/10/22 04:44:22;;;;;;;1.80;0.70;;;;;;;15.54;73.85;100153.94;5030250;28;20064;-44
2023/10/22 04:46:49;;;;;;;4.65;0.90;;;;;;;15.41;74.00;100157.63;5030875;28;20094;-43
2023/10/22 04:49:14;;;;;;;4.93;1.00;;;;;;;15.51;73.93;100158.31;5031882;28;20094;-44
2023/10/22 04:51:40;;;;;;;5.18;1.00;;;;;;;15.43;73.08;100158.44;5031303;28;20037;-44
2023/10/22 04:54:05;;;;;;;2.80;1.08;;;;;;;15.53;72.54;100164.44;5031083;28;20213;-47
2023/10/22 04:56:31;;;;;;;3.45;1.00;;;;;;;15.59;72.20;100159.97;5031045;28;20041;-46
2023/10/22 04:58:57;;;;;;;2.92;1.08;;;;;;;15.47;72.62;100168.03;5030518;28;20504;-44
2023/10/22 05:01:22;;;;;;;3.30;0.90;;;;;;;15.70;71.75;100170.25;5031068;28;20069;-49
2023/10/22 05:03:48;;;;;;;3.90;0.90;;;;;;;15.75;71.48;100165.78;5030353;28;20037;-44
2023/10/22 05:06:13;;;;;;;4.55;0.90;;;;;;;15.78;71.29;100168.38;5030849;28;20077;-47
2023/10/22 05:08:40;;;;;;;1.77;0.70;;;;;;;15.78;71.52;100173.63;5030313;28;20542;-47
2023/10/22 05:11:06;;;;;;;3.05;0.90;;;;;;;15.37;71.87;100172.56;5030886;28;20044;-46
2023/10/22 05:13:32;;;;;;;5.57;0.93;;;;;;;15.31;70.39;100184.91;5030486;28;20037;-50
2023/10/22 05:15:58;;;;;;;2.72;0.90;;;;;;;15.53;70.72;100186.34;5029991;28;20049;-48
2023/10/22 05:18:25;;;;;;;2.20;0.88;;;;;;;15.79;69.87;100185.88;5030098;28;20459;-46
2023/10/22 05:20:51;;;;;;;2.70;0.80;;;;;;;15.61;69.76;100192.34;5030175;28;20085;-44
2023/10/22 05:23:16;;;;;;;1.90;0.82;;;;;;;15.59;70.81;100188.00;5030655;28;20057;-46
2023/10/22 05:25:42;;;;;;;4.68;0.90;;;;;;;15.80;69.61;100198.09;5029528;28;20550;-44
2023/10/22 05:28:07;;;;;;;4.38;0.93;;;;;;;15.62;70.54;100203.69;5030465;28;20113;-44
2023/10/22 05:30:32;;;;;;;3.95;0.82;;;;;;;15.68;69.91;100211.44;5030389;28;20037;-46
2023/10/22 05:32:59;;;;;;;2.47;0.70;;;;;;;15.76;69.66;100220.94;5029940;28;20041;-48
2023/10/22 05:35:24;;;;;;;1.90;0.80;;;;;;;15.69;70.12;100232.47;5030082;28;20040;-47
2023/10/22 05:37:51;;;;;;;2.35;0.80;;;;;;;15.61;70.75;100229.13;5029694;28;20033;-47
2023/10/22 05:40:17;;;;;;;3.65;0.95;;;;;;;15.57;69.88;100237.94;5028592;28;20041;-46
2023/10/22 05:42:42;;;;;;;2.92;0.90;;;;;;;15.68;69.58;100241.22;5027494;28;20112;-51
2023/10/22 05:45:09;;;;;;;2.88;0.93;;;;;;;15.59;70.40;100246.66;5029788;28;20037;-44
2023/10/22 05:47:35;;;;;;;4.05;0.90;;;;;;;15.37;70.65;100243.47;5030387;28;20136;-44
2023/10/22 05:50:01;;;;;;;3.90;0.82;;;;;;;15.67;70.14;100257.91;5029591;28;20414;-43
2023/10/22 05:52:28;;;;;;;2.28;0.70;;;;;;;15.79;70.10;100257.69;5028870;28;20045;-47
2023/10/22 05:54:54;;;;;;;2.92;0.80;;;;;;;15.75;70.20;100269.13;5029064;28;20036;-44
2023/10/22 05:57:21;;;;;;;5.15;0.80;;;;;;;15.81;69.63;100271.66;5027945;28;20141;-45
2023/10/22 05:59:47;;;;;;;3.08;0.90;;;;;;;15.71;70.07;100274.47;5030096;28;20535;-45
2023/10/22 06:02:12;;;;;;;1.85;0.90;;;;;;;15.81;69.81;100284.81;5030312;28;20128;-44
2023/10/22 06:04:38;;;;;;;2.50;0.90;;;;;;;15.91;69.48;100285.53;5027618;28;20037;-46
2023/10/22 06:07:04;;;;;;;4.20;0.80;;;;;;;15.86;69.36;100289.97;5027869;28;20038;-49
2023/10/22 06:09:29;;;;;;;3.58;0.80;;;;;;;15.94;69.36;100298.59;5048781;22;20418;-48
2023/10/22 06:11:54;;;;;;;2.13;0.70;;;;;;;15.93;69.12;100303.88;5056013;28;20044;-48
2023/10/22 06:14:20;;;;;;;3.28;0.82;;;;;;;15.84;69.31;100312.81;5056888;28;20175;-49
2023/10/22 06:16:45;;;;;;;2.30;0.80;;;;;;;15.79;69.06;100315.53;5049849;28;20179;-46
2023/10/22 06:19:10;;;;;;;4.20;1.00;;;;;;;15.66;68.82;100316.63;5042745;28;20053;-48
2023/10/22 06:21:36;;;;;;;3.28;1.40;;;;;;;15.51;69.66;100323.81;5027202;28;20084;-50
2023/10/22 06:24:01;;;;;;;3.63;1.20;;;;;;;15.42;69.95;100330.09;5025343;28;20168;-47
2023/10/22 06:26:26;;;;;;;2.95;1.17;;;;;;;15.31;70.47;100326.75;5028403;28;20034;-46
2023/10/22 06:28:52;;;;;;;4.22;1.20;;;;;;;15.27;70.29;100335.56;5027945;28;20500;-44
2023/10/22 06:31:17;;;;;;;4.30;1.20;;;;;;;15.23;71.05;100347.00;5028598;28;20038;-45
2023/10/22 06:33:43;;;;;;;3.88;1.30;;;;;;;15.17;71.84;100334.84;5027880;28;20029;-51
2023/10/22 06:36:20;;;;;;;3.33;1.30;;;;;;;15.18;71.80;100344.47;5028773;28;20029;-47
2023/10/22 06:38:46;;;;;;;3.53;1.38;;;;;;;15.14;72.59;100352.38;5027992;28;20068;-47
2023/10/22 06:41:16;;;;;;;5.60;1.70;;;;;;;15.14;72.93;100362.88;5028786;28;20549;-47
2023/10/22 06:43:42;;;;;;;5.50;1.75;;;;;;;15.22;73.39;100368.91;5027704;28;20033;-44
2023/10/22 06:46:08;;;;;;;4.22;1.63;;;;;;;15.21;73.83;100369.78;5028570;28;20386;-50
2023/10/22 06:48:33;;;;;;;6.80;2.05;;;;;;;15.05;74.73;100378.75;5028412;28;20037;-51
2023/10/22 06:50:59;;;;;;;4.75;1.90;;;;;;;15.14;73.77;100383.88;5027682;28;20034;-51
2023/10/22 06:53:24;;;;;;;4.68;1.95;;;;;;;15.16;73.66;100385.59;5029701;28;20065;-51
2023/10/22 06:55:50;;;;;;;6.93;1.92;;;;;;;15.10;73.95;100390.94;5032182;28;20034;-50
2023/10/22 06:58:16;;;;;;;4.68;1.90;;;;;;;15.15;74.10;100393.50;5032709;28;20072;-46
2023/10/22 07:00:41;;;;;;;5.28;1.88;;;;;;;15.16;74.67;100403.13;5032765;28;20029;-46
2023/10/22 07:03:07;;;;;;;4.47;1.70;;;;;;;15.23;74.72;100403.03;5032517;28;20540;-48
2023/10/22 07:05:32;;;;;;;4.90;1.80;;;;;;;15.42;74.72;100411.53;5033267;28;20025;-50
2023/10/22 07:07:58;;;;;;;5.45;1.95;;;;;;;15.51;74.13;100423.66;5031390;28;20029;-47
2023/10/22 07:10:23;;;;;;;5.03;1.70;;;;;;;15.62;74.33;100422.66;5033212;28;20107;-46
2023/10/22 07:12:49;;;;;;;4.93;1.63;;;;;;;15.77;73.73;100432.06;5032354;28;20068;-47
2023/10/22 07:15:14;;;;;;;4.93;1.58;;;;;;;15.82;72.90;100430.25;5032841;28;20029;-51
2023/10/22 07:17:39;;;;;;;3.25;1.60;;;;;;;15.89;72.40;100426.63;5032313;28;20041;-46
2023/10/22 07:20:07;;;;;;;4.75;1.70;;;;;;;15.81;72.56;100439.88;5032970;28;20049;-46
2023/10/22 07:22:33;;;;;;;4.28;1.70;;;;;;;15.97;72.30;100440.53;5032667;28;20088;-46
2023/10/22 07:24:58;;;;;;;4.85;1.70;;;;;;;15.98;72.37;100441.41;5032100;28;20038;-45
2023/10/22 07:27:23;;;;;;;5.68;1.73;;;;;;;16.24;72.50;100444.47;5033002;28;20021;-46
2023/10/22 07:29:49;;;;;;;6.72;1.90;;;;;;;15.98;72.24;100454.56;5032272;28;20040;-49
2023/10/22 07:32:14;;;;;;;5.80;1.90;;;;;;;16.24;71.94;100457.63;5032779;28;20038;-50
2023/10/22 07:34:40;;;;;;;5.03;2.05;;;;;;;16.00;71.56;100458.88;5031633;28;20029;-48
2023/10/22 07:37:05;;;;;;;6.72;1.98;;;;;;;16.11;71.13;100469.22;5032923;28;20043;-46
2023/10/22 07:39:30;;;;;;;10.15;2.30;;;;;;;16.03;71.19;100469.38;5031427;28;20025;-47
2023/10/22 07:41:56;;;;;;;3.60;1.90;;;;;;;16.30;70.94;100475.94;5032411;28;20388;-46
2023/10/22 07:44:21;;;;;;;4.97;1.85;;;;;;;16.52;70.65;100471.19;5032786;28;20107;-46
2023/10/22 07:46:46;;;;;;;4.50;1.98;;;;;;;16.67;69.86;100473.56;5032934;28;20112;-44
2023/10/22 07:49:12;;;;;;;3.35;1.90;;;;;;;16.60;69.73;100475.44;5033851;28;20103;-50
2023/10/22 07:51:37;;;;;;;5.43;1.92;;;;;;;16.53;69.55;100486.06;5034367;28;20029;-49
2023/10/22 07:54:03;;;;;;;6.35;1.92;;;;;;;16.52;69.84;100495.75;5033706;28;20045;-48
2023/10/22 07:56:28;;;;;;;4.20;2.20;;;;;;;16.56;70.04;100494.78;5032274;28;20053;-48
2023/10/22 07:58:53;;;;;;;6.13;2.40;;;;;;;16.63;70.06;100491.19;5031628;28;20430;-46
2023/10/22 08:01:19;;;;;;;7.00;2.13;;;;;;;16.41;69.85;100495.03;5031932;28;20029;-47
2023/10/22 08:03:45;;;;;;;6.05;2.30;;;;;;;16.45;70.31;100501.13;5031590;28;20041;-49
2023/10/22 08:06:11;;;;;;;5.05;2.30;;;;;;;16.12;70.86;100505.16;5029995;28;20032;-51
2023/10/22 08:08:36;;;;;;;5.32;2.17;;;;;;;16.32;70.71;100510.13;5031704;28;20082;-48
2023/10/22 08:11:03;;;;;;;5.78;2.45;;;;;;;16.46;70.36;100514.28;5031780;28;20041;-46
2023/10/22 08:13:29;;;;;;;4.85;2.00;;;;;;;16.58;70.20;100511.44;5032013;28;20036;-49
2023/10/22 08:15:56;;;;;;;5.20;2.20;;;;;;;16.48;69.91;100525.63;5031782;28;20215;-46
2023/10/22 08:18:21;;;;;;;5.10;2.00;;;;;;;16.64;69.97;100526.28;5033161;28;20037;-49
2023/10/22 08:20:47;;;;;;;4.72;2.13;;;;;;;16.55;70.17;100534.28;5032161;28;20029;-47
2023/10/22 08:23:12;;;;;;;7.60;2.30;;;;;;;16.57;69.90;100527.25;5031696;28;20030;-49
2023/10/22 08:25:38;;;;;;;6.78;2.10;;;;;;;16.53;70.02;100529.03;5031114;28;20033;-47
2023/10/22 08:28:03;;;;;;;4.05;1.95;;;;;;;16.67;69.82;100535.88;5031717;28;20550;-45
2023/10/22 08:30:28;;;;;;;3.90;2.10;;;;;;;16.63;69.75;100529.81;5031402;28;20033;-44
2023/10/22 08:32:54;;;;;;;7.00;2.10;;;;;;;16.35;69.75;100526.69;5029440;28;20026;-49
2023/10/22 08:35:19;;;;;;;4.93;1.90;;;;;;;16.41;69.31;100536.25;5030939;28;20037;-47
2023/10/22 08:37:44;;;;;;;5.43;1.90;;;;;;;16.28;70.05;100542.63;5030890;28;20034;-45
2023/10/22 08:40:10;;;;;;;4.95;2.08;;;;;;;16.43;69.91;100547.63;5031503;28;20052;-46
2023/10/22 08:42:37;;;;;;;4.85;1.90;;;;;;;16.58;69.89;100547.41;5030864;28;20036;-52
2023/10/22 08:45:04;;;;;;;4.00;2.03;;;;;;;16.33;70.23;100548.69;5031077;28;20030;-53
2023/10/22 08:47:29;;;;;;;6.88;2.30;;;;;;;16.50;70.16;100555.41;5030625;28;20056;-48
2023/10/22 08:49:56;;;;;;;5.85;1.92;;;;;;;16.71;69.82;100556.00;5030940;28;20418;-47
2023/10/22 08:52:22;;;;;;;4.78;1.88;;;;;;;16.75;70.36;100560.31;5031237;28;20510;-49
2023/10/22 08:54:48;;;;;;;5.88;2.15;;;;;;;16.81;68.97;100573.38;5030501;28;20037;-45
2023/10/22 08:57:15;;;;;;;3.55;1.70;;;;;;;17.02;69.14;100578.25;5031322;28;20033;-46
2023/10/22 08:59:40;;;;;;;4.15;1.90;;;;;;;16.92;68.15;100581.97;5012938;28;20026;-47
2023/10/22 09:02:11;;;;;;;4.78;1.85;;;;;;;17.20;67.68;100577.94;5030838;28;20036;-47
2023/10/22 09:04:38;;;;;;;3.58;2.00;;;;;;;16.74;68.62;100583.13;5030551;28;20038;-50
2023/10/22 09:07:03;;;;;;;6.45;2.03;;;;;;;16.95;67.53;100588.06;5030738;28;20061;-46
2023/10/22 09:09:32;;;;;;;4.72;1.98;;;;;;;17.02;67.44;100594.94;5030758;28;20171;-48
2023/10/22 09:11:58;;;;;;;4.95;2.10;;;;;;;16.84;68.55;100600.50;5030361;28;20042;-46
2023/10/22 09:14:24;;;;;;;5.32;1.98;;;;;;;16.79;68.96;100597.09;5030484;28;20495;-49
2023/10/22 09:16:50;;;;;;;4.60;2.05;;;;;;;16.99;68.94;100596.75;5029339;28;20036;-49
2023/10/22 09:19:35;;;;;;;3.45;1.73;;;;;;;17.16;68.79;100602.59;5030538;28;20048;-50
2023/10/22 09:22:00;;;;;;;7.22;1.88;;;;;;;16.81;68.79;100608.47;5030164;28;20030;-46
2023/10/22 09:24:26;;;;;;;4.22;1.80;;;;;;;16.91;68.89;100607.41;5030375;28;20041;-46
2023/10/22 09:26:52;;;;;;;4.90;1.80;;;;;;;16.96;68.98;100608.22;5030013;28;20030;-46
2023/10/22 09:29:18;;;;;;;4.35;1.55;;;;;;;17.09;68.32;100615.91;5030583;28;20113;-51
2023/10/22 09:31:54;;;;;;;3.75;1.63;;;;;;;16.89;69.37;100614.50;5030099;28;20057;-47
2023/10/22 09:34:27;;;;;;;8.57;1.85;;;;;;;16.95;68.88;100624.06;5030491;28;20029;-48
2023/10/22 09:36:54;;;;;;;3.35;1.60;;;;;;;16.94;69.03;100617.91;5030122;28;20504;-46
2023/10/22 09:39:39;;;;;;;3.65;1.60;;;;;;;16.92;69.11;100632.88;5030192;28;20553;-47
2023/10/22 09:42:08;;;;;;;;;;;;;;;17.01;69.34;100634.50;5030674;28;20116;-44
2023/10/22 09:44:35;;;;;;;2.78;1.50;;;;;;;17.22;68.86;100634.09;5030273;28;19908;-48
2023/10/22 09:47:02;;;;;;;4.90;1.60;;;;;;;17.04;69.08;100631.78;5030668;28;20037;-45
2023/10/22 09:49:33;;;;;;;3.17;1.50;;;;;;;17.09;69.42;100631.69;5029747;28;20025;-54
2023/10/22 09:52:00;;;;;;;4.00;1.63;;;;;;;17.54;68.70;100619.47;5030127;28;20498;-49
2023/10/22 09:54:39;;;;;;;6.38;1.50;;;;;;;18.13;67.65;100619.16;5030339;28;20033;-49
2023/10/22 09:57:15;;;;;;;3.83;1.73;;;;;;;18.09;66.20;100625.41;5029793;28;20038;-49
2023/10/22 09:59:41;;;;;;;3.33;1.50;;;;;;;18.42;64.57;100622.94;5029635;28;20037;-48
2023/10/22 10:02:15;;;;;;;4.28;1.60;;;;;;;18.41;63.86;100624.72;5029840;28;20120;-47
2023/10/22 10:04:42;;;;;;;5.13;1.55;;;;;;;18.38;64.65;100629.16;5029410;28;20498;-50
2023/10/22 10:07:08;;;;;;;3.72;1.48;;;;;;;18.57;62.72;100630.53;5029940;28;20487;-51
2023/10/22 10:09:34;;;;;;;4.72;1.63;;;;;;;18.84;62.44;100629.00;5029524;28;20045;-47
2023/10/22 10:12:04;;;;;;;5.55;1.80;;;;;;;18.82;61.93;100634.31;5030114;28;20049;-50
2023/10/22 10:14:46;;;;;;;4.85;1.75;;;;;;;18.30;61.72;100644.31;5029474;28;20037;-47
2023/10/22 10:17:13;;;;;;;4.75;2.00;;;;;;;18.23;61.94;100648.88;5025240;28;20095;-50
2023/10/22 10:19:39;;;;;;;5.18;1.73;;;;;;;18.10;62.31;100650.03;5029899;28;20506;-49
2023/10/22 10:22:04;;;;;;;4.75;1.77;;;;;;;17.88;63.75;100659.25;5029348;28;20116;-46
2023/10/22 10:24:31;;;;;;;5.43;1.83;;;;;;;17.43;64.96;100667.13;5029773;28;20029;-45
2023/10/22 10:26:56;;;;;;;3.78;1.60;;;;;;;17.63;65.52;100658.84;5029777;28;20036;-45
2023/10/22 10:29:28;;;;;;;6.38;1.60;;;;;;;17.89;64.77;100663.63;5032001;28;20025;-46
2023/10/22 10:31:55;;;;;;;4.95;1.65;;;;;;;17.44;65.58;100677.63;5033996;28;20059;-49
2023/10/22 10:34:21;;;;;;;5.05;1.60;;;;;;;17.64;65.05;100672.00;5033287;28;20026;-45
2023/10/22 10:36:49;;;;;;;4.40;1.40;;;;;;;17.62;65.25;100675.59;5033716;28;20033;-48
2023/10/22 10:39:51;;;;;;;4.75;1.50;;;;;;;17.51;64.91;100672.22;5033365;28;20044;-49
2023/10/22 10:42:28;;;;;;;2.67;1.50;;;;;;;17.63;64.19;100682.59;5029672;28;20052;-46
2023/10/22 10:45:00;;;;;;;5.53;1.48;;;;;;;17.68;63.59;100689.53;5039971;28;20017;-48
2023/10/22 10:47:28;;;;;;;3.22;1.90;;;;;;;17.69;63.12;100685.97;5049252;28;20036;-48
2023/10/22 10:50:02;;;;;;;3.75;1.88;;;;;;;17.80;61.79;100689.31;5041478;28;20030;-47
2023/10/22 10:52:28;;;;;;;3.80;1.83;;;;;;;17.77;62.26;100689.34;5035345;28;20136;-47
2023/10/22 10:54:59;;;;;;;6.65;1.60;;;;;;;17.91;62.55;100694.38;5034968;28;20630;-47
2023/10/22 10:57:37;;;;;;;6.03;1.92;;;;;;;17.68;62.68;100700.09;5033305;28;20038;-46
2023/10/22 11:00:09;;;;;;;3.50;1.80;;;;;;;17.72;61.81;100691.22;5032919;28;20038;-45
2023/10/22 11:02:45;;;;;;;3.55;1.75;;;;;;;17.91;62.60;100697.00;5033101;28;20047;-47
2023/10/22 11:05:10;;;;;;;5.13;1.67;;;;;;;17.90;62.85;100699.66;5032635;28;20083;-55
2023/10/22 11:07:37;;;;;;;5.13;1.80;;;;;;;17.66;62.69;100706.28;5033826;28;20029;-45
2023/10/22 11:10:20;;;;;;;3.55;1.83;;;;;;;17.74;63.32;100696.47;5032353;28;20040;-48
2023/10/22 11:12:46;;;;;;;4.93;1.90;;;;;;;17.67;63.53;100694.84;5032989;28;20087;-44
2023/10/22 11:15:13;;;;;;;3.42;1.80;;;;;;;18.01;63.37;100688.00;5032446;28;20033;-48
2023/10/22 11:17:40;;;;;;;5.07;1.77;;;;;;;17.99;63.80;100688.94;5032897;28;20033;-47
2023/10/22 11:20:07;;;;;;;5.50;1.80;;;;;;;18.10;63.70;100700.16;5032261;28;20036;-48
2023/10/22 11:22:32;;;;;;;4.25;1.70;;;;;;;18.45;63.89;100707.31;5032824;28;20030;-45
2023/10/22 11:25:00;;;;;;;3.55;1.40;;;;;;;18.83;61.71;100696.81;5032534;28;20033;-49